THA950 LTFM-EKCH
Flight info
| Callsign | THA950 |
|---|---|
| Flight time | 2h 43m |
| Altitude | 40000 |
| Route | IBLAX1H/18 IBLAX P727 BGS L622 GONGO DCT KOMAN DCT KARIL DCT KENIN DCT LENOV DCT AMROR DCT ROE M743 TIDVU |
| Aircraft | A359/H-SDE2E3GHIJ3J4J5LM1ORWXY/LB1D1 |
Departure
| Time | 2026-04-26 11:22 |
|---|---|
| Airport | İstanbul Airport (LTFM) |
Arrival
| Time | 2026-04-26 14:05 |
|---|---|
| Airport | Copenhagen Kastrup Airport (EKCH) |
| Time | Latitude | Longitude | Altitude | Speed | Heading |
|---|---|---|---|---|---|
| 2026-04-26 10:51 | 41.26796 | 28.74976 | 310 ft | 0 kts | 269° |
| 2026-04-26 11:10 | 41.26796 | 28.74993 | 311 ft | 3 kts | 269° |
| 2026-04-26 11:10 | 41.26796 | 28.75020 | 309 ft | 3 kts | 269° |
| 2026-04-26 11:10 | 41.26797 | 28.75048 | 308 ft | 3 kts | 269° |
| 2026-04-26 11:11 | 41.26797 | 28.75075 | 308 ft | 3 kts | 273° |
| 2026-04-26 11:11 | 41.26792 | 28.75101 | 309 ft | 3 kts | 296° |
| 2026-04-26 11:11 | 41.26779 | 28.75122 | 310 ft | 3 kts | 337° |
| 2026-04-26 11:11 | 41.26763 | 28.75127 | 310 ft | 0 kts | 358° |
| 2026-04-26 11:15 | 41.26772 | 28.75126 | 309 ft | 2 kts | 358° |
| 2026-04-26 11:16 | 41.26798 | 28.75125 | 310 ft | 5 kts | 358° |
| 2026-04-26 11:16 | 41.26846 | 28.75124 | 312 ft | 8 kts | 359° |
| 2026-04-26 11:16 | 41.26915 | 28.75123 | 311 ft | 11 kts | 359° |
| 2026-04-26 11:16 | 41.27004 | 28.75121 | 312 ft | 14 kts | 359° |
| 2026-04-26 11:17 | 41.27107 | 28.75128 | 312 ft | 15 kts | 21° |
| 2026-04-26 11:17 | 41.27136 | 28.75239 | 313 ft | 13 kts | 89° |
| 2026-04-26 11:17 | 41.27165 | 28.75345 | 311 ft | 12 kts | 20° |
| 2026-04-26 11:17 | 41.27257 | 28.75348 | 311 ft | 15 kts | 360° |
| 2026-04-26 11:18 | 41.27370 | 28.75347 | 311 ft | 17 kts | 360° |
| 2026-04-26 11:18 | 41.27500 | 28.75346 | 311 ft | 20 kts | 359° |
| 2026-04-26 11:18 | 41.27648 | 28.75343 | 313 ft | 22 kts | 359° |
| 2026-04-26 11:18 | 41.27812 | 28.75340 | 313 ft | 25 kts | 359° |
| 2026-04-26 11:19 | 41.27972 | 28.75338 | 311 ft | 18 kts | 359° |
| 2026-04-26 11:19 | 41.28109 | 28.75337 | 313 ft | 21 kts | 359° |
| 2026-04-26 11:19 | 41.28263 | 28.75335 | 311 ft | 23 kts | 359° |
| 2026-04-26 11:19 | 41.28430 | 28.75333 | 312 ft | 25 kts | 359° |
| 2026-04-26 11:20 | 41.28590 | 28.75330 | 312 ft | 24 kts | 359° |
| 2026-04-26 11:20 | 41.28750 | 28.75328 | 313 ft | 19 kts | 359° |
| 2026-04-26 11:20 | 41.28874 | 28.75326 | 313 ft | 14 kts | 360° |
| 2026-04-26 11:20 | 41.28953 | 28.75383 | 313 ft | 14 kts | 61° |
| 2026-04-26 11:21 | 41.28960 | 28.75521 | 314 ft | 16 kts | 91° |
| 2026-04-26 11:21 | 41.28915 | 28.75618 | 312 ft | 13 kts | 169° |
| 2026-04-26 11:21 | 41.28868 | 28.75621 | 313 ft | 0 kts | 178° |
| 2026-04-26 11:22 | 41.28746 | 28.75623 | 313 ft | 46 kts | 179° |
| 2026-04-26 11:22 | 41.28178 | 28.75633 | 312 ft | 115 kts | 179° |
| 2026-04-26 11:22 | 41.27184 | 28.75659 | 429 ft | 160 kts | 179° |
| 2026-04-26 11:22 | 41.26091 | 28.75709 | 1270 ft | 154 kts | 182° |
| 2026-04-26 11:23 | 41.25014 | 28.76082 | 1941 ft | 176 kts | 152° |
| 2026-04-26 11:23 | 41.23941 | 28.77118 | 2454 ft | 206 kts | 143° |
| 2026-04-26 11:23 | 41.22707 | 28.78358 | 2876 ft | 238 kts | 147° |
| 2026-04-26 11:23 | 41.21285 | 28.79662 | 3526 ft | 257 kts | 148° |
| 2026-04-26 11:24 | 41.19769 | 28.81020 | 4400 ft | 268 kts | 147° |
| 2026-04-26 11:24 | 41.18495 | 28.82866 | 5203 ft | 279 kts | 117° |
| 2026-04-26 11:24 | 41.18092 | 28.85367 | 6115 ft | 282 kts | 89° |
| 2026-04-26 11:24 | 41.18172 | 28.88012 | 6988 ft | 289 kts | 85° |
| 2026-04-26 11:25 | 41.18486 | 28.90625 | 7935 ft | 293 kts | 70° |
| 2026-04-26 11:25 | 41.19427 | 28.93024 | 8872 ft | 294 kts | 55° |
| 2026-04-26 11:25 | 41.20736 | 28.95126 | 9786 ft | 298 kts | 39° |
| 2026-04-26 11:25 | 41.22513 | 28.96487 | 10619 ft | 295 kts | 13° |
| 2026-04-26 11:26 | 41.24527 | 28.96572 | 11521 ft | 290 kts | 343° |
| 2026-04-26 11:26 | 41.26326 | 28.95434 | 12462 ft | 287 kts | 323° |
| 2026-04-26 11:26 | 41.27969 | 28.93909 | 13365 ft | 290 kts | 322° |
| 2026-04-26 11:26 | 41.29635 | 28.92326 | 14008 ft | 302 kts | 322° |
| 2026-04-26 11:27 | 41.31414 | 28.90657 | 14339 ft | 323 kts | 323° |
| 2026-04-26 11:27 | 41.33315 | 28.88895 | 14641 ft | 343 kts | 323° |
| 2026-04-26 11:27 | 41.35320 | 28.87047 | 14964 ft | 361 kts | 323° |
| 2026-04-26 11:27 | 41.37414 | 28.85124 | 15515 ft | 370 kts | 324° |
| 2026-04-26 11:28 | 41.39551 | 28.83163 | 16207 ft | 375 kts | 324° |
| 2026-04-26 11:28 | 41.41689 | 28.81199 | 16918 ft | 379 kts | 324° |
| 2026-04-26 11:28 | 41.43874 | 28.79190 | 17643 ft | 384 kts | 324° |
| 2026-04-26 11:28 | 41.46084 | 28.77158 | 18364 ft | 388 kts | 324° |
| 2026-04-26 11:29 | 41.48321 | 28.75098 | 18990 ft | 392 kts | 324° |
| 2026-04-26 11:29 | 41.50577 | 28.73019 | 19650 ft | 396 kts | 324° |
| 2026-04-26 11:29 | 41.52858 | 28.70914 | 20329 ft | 400 kts | 324° |
| 2026-04-26 11:29 | 41.55156 | 28.68792 | 21028 ft | 404 kts | 324° |
| 2026-04-26 11:30 | 41.57480 | 28.66644 | 21710 ft | 408 kts | 324° |
| 2026-04-26 11:30 | 41.59031 | 28.65210 | 22148 ft | 411 kts | 324° |
| 2026-04-26 11:30 | 41.62199 | 28.62277 | 23044 ft | 417 kts | 324° |
| 2026-04-26 11:30 | 41.64603 | 28.60049 | 23637 ft | 421 kts | 323° |
| 2026-04-26 11:31 | 41.67017 | 28.57840 | 23899 ft | 422 kts | 324° |
| 2026-04-26 11:31 | 41.69471 | 28.55667 | 23965 ft | 423 kts | 325° |
| 2026-04-26 11:31 | 41.71939 | 28.53515 | 23963 ft | 424 kts | 325° |
| 2026-04-26 11:31 | 41.74409 | 28.51367 | 23950 ft | 424 kts | 325° |
| 2026-04-26 11:32 | 41.76885 | 28.49206 | 24095 ft | 426 kts | 325° |
| 2026-04-26 11:32 | 41.79345 | 28.47048 | 24630 ft | 428 kts | 325° |
| 2026-04-26 11:32 | 41.81834 | 28.44854 | 25283 ft | 429 kts | 325° |
| 2026-04-26 11:32 | 41.84332 | 28.42645 | 25894 ft | 431 kts | 325° |
| 2026-04-26 11:33 | 41.86846 | 28.40417 | 26482 ft | 434 kts | 325° |
| 2026-04-26 11:33 | 41.89373 | 28.38173 | 27064 ft | 437 kts | 325° |
| 2026-04-26 11:33 | 41.91915 | 28.35914 | 27641 ft | 439 kts | 324° |
| 2026-04-26 11:33 | 41.94474 | 28.33639 | 28209 ft | 442 kts | 324° |
| 2026-04-26 11:34 | 41.97048 | 28.31347 | 28762 ft | 445 kts | 324° |
| 2026-04-26 11:34 | 41.99641 | 28.29038 | 29300 ft | 448 kts | 324° |
| 2026-04-26 11:34 | 42.02253 | 28.26708 | 29844 ft | 451 kts | 324° |
| 2026-04-26 11:34 | 42.04881 | 28.24363 | 30281 ft | 454 kts | 324° |
| 2026-04-26 11:35 | 42.07526 | 28.22000 | 30685 ft | 457 kts | 324° |
| 2026-04-26 11:35 | 42.10185 | 28.19623 | 31086 ft | 460 kts | 324° |
| 2026-04-26 11:35 | 42.12854 | 28.17234 | 31482 ft | 462 kts | 324° |
| 2026-04-26 11:35 | 42.14632 | 28.15641 | 31739 ft | 463 kts | 324° |
| 2026-04-26 11:36 | 42.18232 | 28.12412 | 32226 ft | 466 kts | 324° |
| 2026-04-26 11:36 | 42.20937 | 28.09983 | 32579 ft | 468 kts | 324° |
| 2026-04-26 11:36 | 42.23658 | 28.07538 | 32993 ft | 468 kts | 324° |
| 2026-04-26 11:36 | 42.26366 | 28.05102 | 33550 ft | 466 kts | 324° |
| 2026-04-26 11:37 | 42.29017 | 28.02715 | 34059 ft | 463 kts | 324° |
| 2026-04-26 11:37 | 42.31698 | 28.00298 | 34490 ft | 462 kts | 324° |
| 2026-04-26 11:37 | 42.34368 | 27.97889 | 34880 ft | 461 kts | 324° |
| 2026-04-26 11:37 | 42.37030 | 27.95482 | 35272 ft | 460 kts | 324° |
| 2026-04-26 11:38 | 42.39687 | 27.93079 | 35665 ft | 458 kts | 324° |
| 2026-04-26 11:38 | 42.42336 | 27.90680 | 36036 ft | 457 kts | 324° |
| 2026-04-26 11:38 | 42.44966 | 27.88295 | 36395 ft | 457 kts | 324° |
| 2026-04-26 11:38 | 42.47618 | 27.85889 | 36749 ft | 456 kts | 324° |
| 2026-04-26 11:39 | 42.50259 | 27.83490 | 37094 ft | 455 kts | 323° |
| 2026-04-26 11:39 | 42.52883 | 27.81103 | 37436 ft | 455 kts | 323° |
| 2026-04-26 11:39 | 42.55512 | 27.78711 | 37767 ft | 454 kts | 323° |
| 2026-04-26 11:39 | 42.58134 | 27.76321 | 38088 ft | 453 kts | 323° |
| 2026-04-26 11:40 | 42.60754 | 27.73932 | 38407 ft | 453 kts | 323° |
| 2026-04-26 11:40 | 42.63366 | 27.71547 | 38687 ft | 453 kts | 323° |
| 2026-04-26 11:40 | 42.65980 | 27.69158 | 38900 ft | 453 kts | 323° |
| 2026-04-26 11:40 | 42.68593 | 27.66766 | 39111 ft | 453 kts | 323° |
| 2026-04-26 11:41 | 42.71166 | 27.64409 | 39312 ft | 453 kts | 323° |
| 2026-04-26 11:42 | 42.89643 | 27.47412 | 39929 ft | 466 kts | 323° |
| 2026-04-26 11:43 | 42.94980 | 27.42482 | 39911 ft | 466 kts | 323° |
| 2026-04-26 11:43 | 43.00349 | 27.37512 | 39910 ft | 466 kts | 323° |
| 2026-04-26 11:44 | 43.05711 | 27.32538 | 39911 ft | 466 kts | 323° |
| 2026-04-26 11:44 | 43.11075 | 27.27551 | 39912 ft | 466 kts | 323° |
| 2026-04-26 11:45 | 43.16441 | 27.22549 | 39906 ft | 466 kts | 323° |
| 2026-04-26 11:45 | 43.21799 | 27.17544 | 39904 ft | 466 kts | 323° |
| 2026-04-26 11:46 | 43.27118 | 27.12564 | 39905 ft | 466 kts | 323° |
| 2026-04-26 11:46 | 43.32477 | 27.07536 | 39908 ft | 466 kts | 323° |
| 2026-04-26 11:47 | 43.37830 | 27.02504 | 39908 ft | 466 kts | 323° |
| 2026-04-26 11:47 | 43.43185 | 26.97459 | 39909 ft | 466 kts | 323° |
| 2026-04-26 11:48 | 43.48533 | 26.92410 | 39907 ft | 466 kts | 323° |
| 2026-04-26 11:48 | 43.53883 | 26.87347 | 39902 ft | 466 kts | 323° |
| 2026-04-26 11:49 | 43.59197 | 26.82307 | 39903 ft | 467 kts | 323° |
| 2026-04-26 11:49 | 43.64546 | 26.77223 | 39904 ft | 467 kts | 322° |
| 2026-04-26 11:50 | 43.69900 | 26.72125 | 39901 ft | 467 kts | 322° |
| 2026-04-26 11:50 | 43.75252 | 26.67015 | 39902 ft | 467 kts | 322° |
| 2026-04-26 11:51 | 43.80598 | 26.61900 | 39902 ft | 467 kts | 322° |
| 2026-04-26 11:51 | 43.85947 | 26.56770 | 39896 ft | 467 kts | 322° |
| 2026-04-26 11:52 | 43.90396 | 26.52495 | 39895 ft | 467 kts | 322° |
| 2026-04-26 11:52 | 43.96607 | 26.46513 | 39894 ft | 467 kts | 322° |
| 2026-04-26 11:53 | 44.01945 | 26.41361 | 39890 ft | 467 kts | 322° |
| 2026-04-26 11:54 | 44.09938 | 26.33624 | 39886 ft | 466 kts | 322° |
| 2026-04-26 11:54 | 44.15260 | 26.28457 | 39884 ft | 466 kts | 322° |
| 2026-04-26 11:55 | 44.20576 | 26.23286 | 39884 ft | 466 kts | 322° |
| 2026-04-26 11:55 | 44.24922 | 26.19048 | 39884 ft | 466 kts | 322° |
| 2026-04-26 11:56 | 44.31129 | 26.12984 | 39885 ft | 465 kts | 322° |
| 2026-04-26 11:56 | 44.36426 | 26.07795 | 39887 ft | 465 kts | 322° |
| 2026-04-26 11:57 | 44.41697 | 26.02622 | 39884 ft | 465 kts | 322° |
| 2026-04-26 11:57 | 44.46991 | 25.97413 | 39888 ft | 465 kts | 322° |
| 2026-04-26 11:58 | 44.51415 | 25.93052 | 39884 ft | 464 kts | 322° |
| 2026-04-26 11:58 | 44.56693 | 25.87837 | 39862 ft | 464 kts | 322° |
| 2026-04-26 11:59 | 44.61928 | 25.82653 | 39864 ft | 463 kts | 323° |
| 2026-04-26 11:59 | 44.67186 | 25.77435 | 39856 ft | 461 kts | 323° |
| 2026-04-26 12:00 | 44.72415 | 25.72233 | 39860 ft | 460 kts | 323° |
| 2026-04-26 12:00 | 44.77627 | 25.67036 | 39868 ft | 459 kts | 323° |
| 2026-04-26 12:01 | 44.82838 | 25.61831 | 39869 ft | 459 kts | 323° |
| 2026-04-26 12:01 | 44.88041 | 25.56620 | 39866 ft | 459 kts | 323° |
| 2026-04-26 12:02 | 44.93245 | 25.51396 | 39867 ft | 459 kts | 322° |
| 2026-04-26 12:02 | 44.98421 | 25.46190 | 39866 ft | 460 kts | 322° |
| 2026-04-26 12:03 | 45.03632 | 25.40936 | 39865 ft | 460 kts | 322° |
| 2026-04-26 12:03 | 45.08857 | 25.35656 | 39879 ft | 461 kts | 322° |
| 2026-04-26 12:04 | 45.14081 | 25.30364 | 39885 ft | 462 kts | 322° |
| 2026-04-26 12:04 | 45.19316 | 25.25051 | 39879 ft | 462 kts | 322° |
| 2026-04-26 12:05 | 45.24543 | 25.19732 | 39891 ft | 463 kts | 322° |
| 2026-04-26 12:05 | 45.29747 | 25.14425 | 39905 ft | 463 kts | 322° |
| 2026-04-26 12:06 | 45.34968 | 25.09088 | 39896 ft | 461 kts | 322° |
| 2026-04-26 12:06 | 45.40159 | 25.03768 | 39914 ft | 458 kts | 322° |
| 2026-04-26 12:07 | 45.45316 | 24.98471 | 39916 ft | 455 kts | 322° |
| 2026-04-26 12:07 | 45.50439 | 24.93197 | 39921 ft | 453 kts | 322° |
| 2026-04-26 12:08 | 45.55533 | 24.87941 | 39929 ft | 451 kts | 322° |
| 2026-04-26 12:08 | 45.60606 | 24.82691 | 39929 ft | 450 kts | 321° |
| 2026-04-26 12:09 | 45.65683 | 24.77430 | 39933 ft | 450 kts | 321° |
| 2026-04-26 12:09 | 45.70721 | 24.72197 | 39941 ft | 451 kts | 321° |
| 2026-04-26 12:10 | 45.75791 | 24.66920 | 39944 ft | 451 kts | 321° |
| 2026-04-26 12:10 | 45.80866 | 24.61623 | 39949 ft | 451 kts | 321° |
| 2026-04-26 12:11 | 45.85944 | 24.56313 | 39953 ft | 451 kts | 321° |
| 2026-04-26 12:11 | 45.91011 | 24.51001 | 39958 ft | 451 kts | 321° |
| 2026-04-26 12:12 | 45.96080 | 24.45672 | 39959 ft | 451 kts | 321° |
| 2026-04-26 12:12 | 46.01139 | 24.40344 | 39959 ft | 451 kts | 320° |
| 2026-04-26 12:13 | 46.06206 | 24.34995 | 39962 ft | 451 kts | 320° |
| 2026-04-26 12:13 | 46.11260 | 24.29646 | 39974 ft | 451 kts | 320° |
| 2026-04-26 12:14 | 46.16310 | 24.24289 | 39978 ft | 451 kts | 320° |
| 2026-04-26 12:14 | 46.21332 | 24.18950 | 39982 ft | 451 kts | 320° |
| 2026-04-26 12:15 | 46.26383 | 24.13567 | 39983 ft | 451 kts | 320° |
| 2026-04-26 12:15 | 46.31437 | 24.08169 | 39982 ft | 451 kts | 320° |
| 2026-04-26 12:16 | 46.36481 | 24.02770 | 39984 ft | 450 kts | 320° |
| 2026-04-26 12:16 | 46.41488 | 23.97395 | 39991 ft | 450 kts | 320° |
| 2026-04-26 12:17 | 46.46520 | 23.91981 | 39994 ft | 450 kts | 320° |
| 2026-04-26 12:17 | 46.51546 | 23.86562 | 40006 ft | 450 kts | 320° |
| 2026-04-26 12:18 | 46.56579 | 23.81123 | 40014 ft | 451 kts | 320° |
| 2026-04-26 12:18 | 46.61613 | 23.75669 | 40018 ft | 450 kts | 320° |
| 2026-04-26 12:19 | 46.66635 | 23.70215 | 40019 ft | 450 kts | 320° |
| 2026-04-26 12:19 | 46.71619 | 23.64791 | 40018 ft | 449 kts | 320° |
| 2026-04-26 12:20 | 46.76622 | 23.59332 | 40023 ft | 449 kts | 320° |
| 2026-04-26 12:20 | 46.81613 | 23.53873 | 40024 ft | 448 kts | 320° |
| 2026-04-26 12:21 | 46.86583 | 23.48424 | 40024 ft | 446 kts | 320° |
| 2026-04-26 12:21 | 46.91539 | 23.42979 | 40026 ft | 444 kts | 321° |
| 2026-04-26 12:22 | 46.96462 | 23.37557 | 40032 ft | 442 kts | 321° |
| 2026-04-26 12:22 | 47.01375 | 23.32133 | 40037 ft | 441 kts | 321° |
| 2026-04-26 12:23 | 47.06234 | 23.26755 | 40040 ft | 440 kts | 320° |
| 2026-04-26 12:23 | 47.11106 | 23.21351 | 40050 ft | 439 kts | 320° |
| 2026-04-26 12:24 | 47.15977 | 23.15936 | 40051 ft | 438 kts | 320° |
| 2026-04-26 12:24 | 47.20835 | 23.10521 | 40051 ft | 438 kts | 320° |
| 2026-04-26 12:25 | 47.28115 | 23.02384 | 40053 ft | 438 kts | 320° |
| 2026-04-26 12:25 | 47.32969 | 22.96942 | 40063 ft | 438 kts | 320° |
| 2026-04-26 12:26 | 47.37789 | 22.91525 | 40065 ft | 438 kts | 320° |
| 2026-04-26 12:26 | 47.42642 | 22.86058 | 40067 ft | 438 kts | 320° |
| 2026-04-26 12:27 | 47.47479 | 22.80595 | 40074 ft | 438 kts | 320° |
| 2026-04-26 12:27 | 47.52322 | 22.75114 | 40074 ft | 438 kts | 320° |
| 2026-04-26 12:28 | 47.57157 | 22.69630 | 40075 ft | 438 kts | 320° |
| 2026-04-26 12:28 | 47.61987 | 22.64137 | 40074 ft | 437 kts | 320° |
| 2026-04-26 12:29 | 47.66775 | 22.58679 | 40078 ft | 437 kts | 320° |
| 2026-04-26 12:30 | 47.73993 | 22.50428 | 40081 ft | 436 kts | 320° |
| 2026-04-26 12:30 | 47.78807 | 22.44974 | 40080 ft | 436 kts | 322° |
| 2026-04-26 12:31 | 47.86555 | 22.37773 | 40088 ft | 437 kts | 326° |
| 2026-04-26 12:31 | 47.91778 | 22.33089 | 40088 ft | 437 kts | 326° |
| 2026-04-26 12:32 | 47.96982 | 22.28417 | 40089 ft | 437 kts | 326° |
| 2026-04-26 12:33 | 48.04764 | 22.21389 | 40096 ft | 437 kts | 326° |
| 2026-04-26 12:33 | 48.10004 | 22.16636 | 40105 ft | 437 kts | 326° |
| 2026-04-26 12:34 | 48.15174 | 22.11936 | 40093 ft | 437 kts | 326° |
| 2026-04-26 12:34 | 48.20385 | 22.07187 | 40095 ft | 438 kts | 326° |
| 2026-04-26 12:35 | 48.25591 | 22.02432 | 40100 ft | 438 kts | 326° |
| 2026-04-26 12:35 | 48.30783 | 21.97679 | 40106 ft | 437 kts | 326° |
| 2026-04-26 12:36 | 48.35986 | 21.92904 | 40108 ft | 437 kts | 326° |
| 2026-04-26 12:36 | 48.41153 | 21.88158 | 40115 ft | 437 kts | 326° |
| 2026-04-26 12:37 | 48.46338 | 21.83371 | 40113 ft | 437 kts | 326° |
| 2026-04-26 12:37 | 48.51522 | 21.78574 | 40113 ft | 436 kts | 326° |
| 2026-04-26 12:38 | 48.56690 | 21.73782 | 40113 ft | 436 kts | 326° |
| 2026-04-26 12:38 | 48.61855 | 21.68982 | 40118 ft | 435 kts | 326° |
| 2026-04-26 12:39 | 48.67005 | 21.64186 | 40125 ft | 435 kts | 325° |
| 2026-04-26 12:39 | 48.72125 | 21.59406 | 40123 ft | 434 kts | 325° |
| 2026-04-26 12:40 | 48.77265 | 21.54595 | 40126 ft | 434 kts | 325° |
| 2026-04-26 12:40 | 48.82406 | 21.49770 | 40127 ft | 434 kts | 325° |
| 2026-04-26 12:41 | 48.87541 | 21.44941 | 40128 ft | 434 kts | 325° |
| 2026-04-26 12:41 | 48.92673 | 21.40102 | 40126 ft | 434 kts | 325° |
| 2026-04-26 12:42 | 48.97801 | 21.35255 | 40126 ft | 434 kts | 325° |
| 2026-04-26 12:42 | 49.02936 | 21.30389 | 40122 ft | 434 kts | 325° |
| 2026-04-26 12:43 | 49.07195 | 21.26345 | 40119 ft | 433 kts | 325° |
| 2026-04-26 12:43 | 49.13137 | 21.20688 | 40118 ft | 433 kts | 325° |
| 2026-04-26 12:44 | 49.17422 | 21.16597 | 40119 ft | 433 kts | 325° |
| 2026-04-26 12:44 | 49.22528 | 21.11714 | 40119 ft | 433 kts | 325° |
| 2026-04-26 12:45 | 49.27602 | 21.06850 | 40122 ft | 433 kts | 325° |
| 2026-04-26 12:45 | 49.32732 | 21.01918 | 40116 ft | 433 kts | 325° |
| 2026-04-26 12:46 | 49.37830 | 20.97103 | 40117 ft | 433 kts | 326° |
| 2026-04-26 12:46 | 49.43010 | 20.92374 | 40119 ft | 433 kts | 327° |
| 2026-04-26 12:47 | 49.48194 | 20.87631 | 40120 ft | 433 kts | 326° |
| 2026-04-26 12:47 | 49.53367 | 20.82860 | 40121 ft | 433 kts | 326° |
| 2026-04-26 12:48 | 49.58530 | 20.78071 | 40123 ft | 433 kts | 326° |
| 2026-04-26 12:48 | 49.63683 | 20.73278 | 40130 ft | 432 kts | 326° |
| 2026-04-26 12:49 | 49.68830 | 20.68479 | 40131 ft | 432 kts | 326° |
| 2026-04-26 12:49 | 49.73976 | 20.63670 | 40130 ft | 432 kts | 326° |
| 2026-04-26 12:50 | 49.79118 | 20.58853 | 40135 ft | 431 kts | 326° |
| 2026-04-26 12:50 | 49.84248 | 20.54035 | 40139 ft | 431 kts | 326° |
| 2026-04-26 12:51 | 49.89378 | 20.49205 | 40128 ft | 431 kts | 326° |
| 2026-04-26 12:51 | 49.94475 | 20.44394 | 40147 ft | 431 kts | 326° |
| 2026-04-26 12:52 | 49.99594 | 20.39550 | 40139 ft | 431 kts | 326° |
| 2026-04-26 12:52 | 50.04712 | 20.34696 | 40139 ft | 431 kts | 326° |
| 2026-04-26 12:53 | 50.09828 | 20.29830 | 40152 ft | 430 kts | 326° |
| 2026-04-26 12:53 | 50.14937 | 20.24959 | 40155 ft | 430 kts | 326° |
| 2026-04-26 12:54 | 50.20046 | 20.20076 | 40162 ft | 430 kts | 326° |
| 2026-04-26 12:54 | 50.25112 | 20.15221 | 40165 ft | 430 kts | 326° |
| 2026-04-26 12:55 | 50.30209 | 20.10323 | 40165 ft | 430 kts | 326° |
| 2026-04-26 12:55 | 50.35311 | 20.05409 | 40164 ft | 430 kts | 326° |
| 2026-04-26 12:56 | 50.40407 | 20.00487 | 40161 ft | 430 kts | 326° |
| 2026-04-26 12:56 | 50.45514 | 19.95544 | 40169 ft | 431 kts | 326° |
| 2026-04-26 12:57 | 50.50582 | 19.90624 | 40170 ft | 431 kts | 326° |
| 2026-04-26 12:57 | 50.55682 | 19.85662 | 40176 ft | 431 kts | 326° |
| 2026-04-26 12:58 | 50.63327 | 19.78198 | 40181 ft | 431 kts | 326° |
| 2026-04-26 12:58 | 50.68414 | 19.73216 | 40187 ft | 431 kts | 326° |
| 2026-04-26 12:59 | 50.73506 | 19.68216 | 40194 ft | 430 kts | 326° |
| 2026-04-26 12:59 | 50.78590 | 19.63211 | 40199 ft | 430 kts | 326° |
| 2026-04-26 13:00 | 50.83671 | 19.58197 | 40197 ft | 431 kts | 326° |
| 2026-04-26 13:00 | 50.88753 | 19.53167 | 40202 ft | 431 kts | 326° |
| 2026-04-26 13:01 | 50.93799 | 19.48161 | 40204 ft | 431 kts | 326° |
| 2026-04-26 13:01 | 50.98875 | 19.43111 | 40207 ft | 431 kts | 326° |
| 2026-04-26 13:02 | 51.03953 | 19.38046 | 40205 ft | 431 kts | 326° |
| 2026-04-26 13:02 | 51.09032 | 19.32967 | 40211 ft | 431 kts | 326° |
| 2026-04-26 13:03 | 51.14107 | 19.27878 | 40204 ft | 431 kts | 326° |
| 2026-04-26 13:03 | 51.19176 | 19.22782 | 40212 ft | 431 kts | 326° |
| 2026-04-26 13:04 | 51.24216 | 19.17702 | 40213 ft | 431 kts | 326° |
| 2026-04-26 13:04 | 51.29289 | 19.12576 | 40214 ft | 431 kts | 326° |
| 2026-04-26 13:05 | 51.34351 | 19.07447 | 40215 ft | 430 kts | 326° |
| 2026-04-26 13:05 | 51.39414 | 19.02303 | 40212 ft | 431 kts | 326° |
| 2026-04-26 13:06 | 51.44476 | 18.97146 | 40214 ft | 431 kts | 326° |
| 2026-04-26 13:06 | 51.49504 | 18.92010 | 40213 ft | 431 kts | 326° |
| 2026-04-26 13:07 | 51.54567 | 18.86825 | 40215 ft | 431 kts | 326° |
| 2026-04-26 13:07 | 51.59633 | 18.81623 | 40216 ft | 432 kts | 326° |
| 2026-04-26 13:08 | 51.64695 | 18.76412 | 40218 ft | 432 kts | 326° |
| 2026-04-26 13:08 | 51.69756 | 18.71187 | 40222 ft | 432 kts | 326° |
| 2026-04-26 13:09 | 51.74822 | 18.65943 | 40220 ft | 432 kts | 326° |
| 2026-04-26 13:09 | 51.79882 | 18.60690 | 40220 ft | 432 kts | 326° |
| 2026-04-26 13:10 | 51.84916 | 18.55452 | 40215 ft | 433 kts | 326° |
| 2026-04-26 13:10 | 51.89977 | 18.50171 | 40217 ft | 433 kts | 325° |
| 2026-04-26 13:11 | 51.95037 | 18.44874 | 40219 ft | 433 kts | 325° |
| 2026-04-26 13:11 | 52.00102 | 18.39560 | 40219 ft | 433 kts | 325° |
| 2026-04-26 13:12 | 52.05164 | 18.34235 | 40220 ft | 433 kts | 325° |
| 2026-04-26 13:12 | 52.10230 | 18.28888 | 40221 ft | 434 kts | 325° |
| 2026-04-26 13:13 | 52.15297 | 18.23528 | 40223 ft | 434 kts | 325° |
| 2026-04-26 13:13 | 52.20362 | 18.18154 | 40224 ft | 434 kts | 325° |
| 2026-04-26 13:14 | 52.25395 | 18.12801 | 40225 ft | 434 kts | 325° |
| 2026-04-26 13:14 | 52.30460 | 18.07397 | 40224 ft | 434 kts | 325° |
| 2026-04-26 13:15 | 52.35512 | 18.01992 | 40223 ft | 434 kts | 325° |
| 2026-04-26 13:15 | 52.39715 | 17.97486 | 40223 ft | 434 kts | 325° |
| 2026-04-26 13:16 | 52.45631 | 17.91124 | 40228 ft | 434 kts | 325° |
| 2026-04-26 13:16 | 52.50683 | 17.85673 | 40230 ft | 435 kts | 325° |
| 2026-04-26 13:17 | 52.58260 | 17.77471 | 40228 ft | 435 kts | 325° |
| 2026-04-26 13:18 | 52.65800 | 17.69275 | 40232 ft | 435 kts | 325° |
| 2026-04-26 13:19 | 52.73371 | 17.61010 | 40235 ft | 435 kts | 325° |
| 2026-04-26 13:19 | 52.78422 | 17.55478 | 40236 ft | 435 kts | 325° |
| 2026-04-26 13:20 | 52.83472 | 17.49931 | 40236 ft | 435 kts | 325° |
| 2026-04-26 13:20 | 52.88517 | 17.44373 | 40239 ft | 436 kts | 325° |
| 2026-04-26 13:21 | 52.93534 | 17.38829 | 40239 ft | 436 kts | 325° |
| 2026-04-26 13:21 | 52.98577 | 17.33242 | 40244 ft | 436 kts | 325° |
| 2026-04-26 13:22 | 53.03615 | 17.27644 | 40245 ft | 436 kts | 324° |
| 2026-04-26 13:22 | 53.08653 | 17.22030 | 40245 ft | 436 kts | 324° |
| 2026-04-26 13:23 | 53.13696 | 17.16393 | 40247 ft | 436 kts | 324° |
| 2026-04-26 13:23 | 53.18737 | 17.10743 | 40244 ft | 437 kts | 324° |
| 2026-04-26 13:24 | 53.23748 | 17.05111 | 40251 ft | 437 kts | 324° |
| 2026-04-26 13:24 | 53.28787 | 16.99431 | 40252 ft | 437 kts | 324° |
| 2026-04-26 13:25 | 53.33832 | 16.93728 | 40255 ft | 437 kts | 324° |
| 2026-04-26 13:25 | 53.38880 | 16.88005 | 40255 ft | 437 kts | 324° |
| 2026-04-26 13:26 | 53.43886 | 16.82313 | 40262 ft | 438 kts | 324° |
| 2026-04-26 13:26 | 53.48919 | 16.76574 | 40263 ft | 438 kts | 324° |
| 2026-04-26 13:27 | 53.53967 | 16.70800 | 40264 ft | 438 kts | 324° |
| 2026-04-26 13:27 | 53.59002 | 16.65024 | 40270 ft | 438 kts | 324° |
| 2026-04-26 13:28 | 53.64039 | 16.59230 | 40272 ft | 438 kts | 324° |
| 2026-04-26 13:28 | 53.69049 | 16.53449 | 40274 ft | 439 kts | 324° |
| 2026-04-26 13:29 | 53.74083 | 16.47622 | 40279 ft | 439 kts | 324° |
| 2026-04-26 13:29 | 53.79125 | 16.41771 | 40280 ft | 439 kts | 324° |
| 2026-04-26 13:30 | 53.84161 | 16.35909 | 40286 ft | 439 kts | 324° |
| 2026-04-26 13:30 | 53.89197 | 16.30029 | 40288 ft | 440 kts | 324° |
| 2026-04-26 13:31 | 53.94206 | 16.24163 | 40293 ft | 440 kts | 324° |
| 2026-04-26 13:31 | 53.99243 | 16.18247 | 40295 ft | 440 kts | 324° |
| 2026-04-26 13:32 | 54.04278 | 16.12316 | 40297 ft | 441 kts | 324° |
| 2026-04-26 13:32 | 54.09323 | 16.06354 | 40302 ft | 441 kts | 323° |
| 2026-04-26 13:33 | 54.14361 | 16.00384 | 40305 ft | 441 kts | 323° |
| 2026-04-26 13:33 | 54.18546 | 15.95411 | 40304 ft | 441 kts | 323° |
| 2026-04-26 13:34 | 54.23582 | 15.89407 | 40302 ft | 441 kts | 323° |
| 2026-04-26 13:34 | 54.28596 | 15.83413 | 40302 ft | 442 kts | 323° |
| 2026-04-26 13:35 | 54.33603 | 15.77409 | 40304 ft | 442 kts | 323° |
| 2026-04-26 13:35 | 54.38642 | 15.71349 | 40304 ft | 442 kts | 323° |
| 2026-04-26 13:36 | 54.43673 | 15.65279 | 40304 ft | 442 kts | 323° |
| 2026-04-26 13:36 | 54.48698 | 15.59197 | 40302 ft | 442 kts | 323° |
| 2026-04-26 13:37 | 54.53729 | 15.53091 | 40303 ft | 443 kts | 323° |
| 2026-04-26 13:37 | 54.58763 | 15.46963 | 40298 ft | 443 kts | 323° |
| 2026-04-26 13:38 | 54.63799 | 15.40811 | 40296 ft | 443 kts | 323° |
| 2026-04-26 13:38 | 54.67131 | 15.36732 | 40294 ft | 443 kts | 323° |
| 2026-04-26 13:39 | 54.68887 | 15.34578 | 40296 ft | 444 kts | 323° |
| 2026-04-26 13:39 | 54.73924 | 15.28389 | 40293 ft | 444 kts | 323° |
| 2026-04-26 13:40 | 54.78961 | 15.22179 | 40288 ft | 444 kts | 323° |
| 2026-04-26 13:40 | 54.83996 | 15.15953 | 40288 ft | 445 kts | 323° |
| 2026-04-26 13:41 | 54.88919 | 15.09511 | 40012 ft | 438 kts | 316° |
| 2026-04-26 13:41 | 54.91056 | 15.05828 | 39307 ft | 438 kts | 313° |
| 2026-04-26 13:41 | 54.93127 | 15.01994 | 38500 ft | 437 kts | 312° |
| 2026-04-26 13:41 | 54.95185 | 14.98051 | 37602 ft | 437 kts | 311° |
| 2026-04-26 13:42 | 54.97212 | 14.94107 | 36708 ft | 436 kts | 311° |
| 2026-04-26 13:42 | 54.99234 | 14.90155 | 35817 ft | 436 kts | 311° |
| 2026-04-26 13:42 | 55.01252 | 14.86216 | 34879 ft | 436 kts | 311° |
| 2026-04-26 13:42 | 55.03279 | 14.82266 | 33895 ft | 436 kts | 311° |
| 2026-04-26 13:43 | 55.05291 | 14.78299 | 32739 ft | 437 kts | 309° |
| 2026-04-26 13:43 | 55.07003 | 14.73990 | 31557 ft | 439 kts | 301° |
| 2026-04-26 13:43 | 55.08511 | 14.69339 | 30348 ft | 442 kts | 300° |
| 2026-04-26 13:43 | 55.09953 | 14.64592 | 29306 ft | 440 kts | 299° |
| 2026-04-26 13:44 | 55.11339 | 14.59862 | 28583 ft | 433 kts | 299° |
| 2026-04-26 13:44 | 55.12685 | 14.55198 | 27828 ft | 427 kts | 299° |
| 2026-04-26 13:44 | 55.14013 | 14.50587 | 27090 ft | 422 kts | 299° |
| 2026-04-26 13:44 | 55.15330 | 14.46024 | 26373 ft | 418 kts | 299° |
| 2026-04-26 13:45 | 55.16633 | 14.41516 | 25674 ft | 413 kts | 299° |
| 2026-04-26 13:45 | 55.17925 | 14.37057 | 24988 ft | 409 kts | 299° |
| 2026-04-26 13:45 | 55.19209 | 14.32627 | 24306 ft | 405 kts | 299° |
| 2026-04-26 13:45 | 55.20475 | 14.28254 | 23581 ft | 401 kts | 299° |
| 2026-04-26 13:46 | 55.21725 | 14.23931 | 22766 ft | 398 kts | 300° |
| 2026-04-26 13:46 | 55.22969 | 14.19619 | 21973 ft | 394 kts | 300° |
| 2026-04-26 13:46 | 55.24197 | 14.15355 | 21212 ft | 389 kts | 300° |
| 2026-04-26 13:46 | 55.25396 | 14.11179 | 20461 ft | 386 kts | 300° |
| 2026-04-26 13:47 | 55.26595 | 14.07004 | 19723 ft | 382 kts | 300° |
| 2026-04-26 13:47 | 55.27790 | 14.02847 | 18992 ft | 379 kts | 300° |
| 2026-04-26 13:47 | 55.28966 | 13.98738 | 18233 ft | 376 kts | 300° |
| 2026-04-26 13:47 | 55.30135 | 13.94643 | 17389 ft | 373 kts | 300° |
| 2026-04-26 13:48 | 55.31294 | 13.90583 | 16571 ft | 371 kts | 300° |
| 2026-04-26 13:48 | 55.32443 | 13.86546 | 15768 ft | 369 kts | 300° |
| 2026-04-26 13:48 | 55.33586 | 13.82525 | 14984 ft | 367 kts | 300° |
| 2026-04-26 13:48 | 55.34719 | 13.78531 | 14226 ft | 364 kts | 300° |
| 2026-04-26 13:49 | 55.35847 | 13.74551 | 13381 ft | 362 kts | 300° |
| 2026-04-26 13:49 | 55.36967 | 13.70595 | 12550 ft | 360 kts | 299° |
| 2026-04-26 13:49 | 55.38075 | 13.66675 | 11804 ft | 357 kts | 299° |
| 2026-04-26 13:49 | 55.39165 | 13.62803 | 11393 ft | 346 kts | 299° |
| 2026-04-26 13:50 | 55.39857 | 13.60337 | 11331 ft | 333 kts | 299° |
| 2026-04-26 13:50 | 55.40670 | 13.57421 | 11299 ft | 315 kts | 299° |
| 2026-04-26 13:50 | 55.41461 | 13.53938 | 11305 ft | 297 kts | 292° |
| 2026-04-26 13:50 | 55.42056 | 13.50557 | 11298 ft | 280 kts | 291° |
| 2026-04-26 13:51 | 55.42596 | 13.47390 | 11129 ft | 269 kts | 291° |
| 2026-04-26 13:51 | 55.43136 | 13.44253 | 10796 ft | 266 kts | 291° |
| 2026-04-26 13:51 | 55.43674 | 13.41141 | 10400 ft | 265 kts | 290° |
| 2026-04-26 13:51 | 55.44209 | 13.38039 | 10011 ft | 264 kts | 290° |
| 2026-04-26 13:52 | 55.44742 | 13.34945 | 9562 ft | 264 kts | 290° |
| 2026-04-26 13:52 | 55.45273 | 13.31862 | 9139 ft | 262 kts | 290° |
| 2026-04-26 13:52 | 55.45683 | 13.28724 | 8717 ft | 265 kts | 279° |
| 2026-04-26 13:52 | 55.45484 | 13.25487 | 8339 ft | 270 kts | 256° |
| 2026-04-26 13:53 | 55.44757 | 13.22440 | 7991 ft | 270 kts | 249° |
| 2026-04-26 13:53 | 55.43949 | 13.19463 | 7618 ft | 269 kts | 248° |
| 2026-04-26 13:53 | 55.43145 | 13.16487 | 7269 ft | 267 kts | 248° |
| 2026-04-26 13:53 | 55.42359 | 13.13555 | 7012 ft | 261 kts | 248° |
| 2026-04-26 13:54 | 55.41605 | 13.10731 | 6908 ft | 250 kts | 249° |
| 2026-04-26 13:54 | 55.40887 | 13.08017 | 6795 ft | 240 kts | 249° |
| 2026-04-26 13:54 | 55.40190 | 13.05395 | 6687 ft | 233 kts | 249° |
| 2026-04-26 13:55 | 55.38453 | 13.00563 | 6090 ft | 252 kts | 226° |
| 2026-04-26 13:55 | 55.37530 | 12.99258 | 5715 ft | 259 kts | 219° |
| 2026-04-26 13:55 | 55.34048 | 12.95103 | 4741 ft | 259 kts | 218° |
| 2026-04-26 13:56 | 55.32598 | 12.93239 | 4290 ft | 257 kts | 225° |
| 2026-04-26 13:56 | 55.31562 | 12.90757 | 3837 ft | 250 kts | 251° |
| 2026-04-26 13:56 | 55.31301 | 12.87806 | 3407 ft | 245 kts | 277° |
| 2026-04-26 13:56 | 55.31745 | 12.84945 | 2979 ft | 243 kts | 292° |
| 2026-04-26 13:57 | 55.32458 | 12.82257 | 2527 ft | 242 kts | 297° |
| 2026-04-26 13:57 | 55.33249 | 12.79648 | 2119 ft | 241 kts | 300° |
| 2026-04-26 13:57 | 55.34079 | 12.77095 | 1981 ft | 240 kts | 301° |
| 2026-04-26 13:57 | 55.34935 | 12.74566 | 1978 ft | 241 kts | 301° |
| 2026-04-26 13:58 | 55.35806 | 12.72047 | 1987 ft | 241 kts | 302° |
| 2026-04-26 13:58 | 55.36686 | 12.69531 | 1983 ft | 241 kts | 302° |
| 2026-04-26 13:58 | 55.37568 | 12.67024 | 1986 ft | 241 kts | 302° |
| 2026-04-26 13:58 | 55.38439 | 12.64557 | 1987 ft | 241 kts | 302° |
| 2026-04-26 13:59 | 55.39327 | 12.62044 | 1983 ft | 241 kts | 302° |
| 2026-04-26 13:59 | 55.40209 | 12.59551 | 1983 ft | 236 kts | 302° |
| 2026-04-26 13:59 | 55.41040 | 12.57195 | 1986 ft | 218 kts | 302° |
| 2026-04-26 14:00 | 55.43351 | 12.50648 | 1986 ft | 208 kts | 302° |
| 2026-04-26 14:00 | 55.44116 | 12.48471 | 1988 ft | 209 kts | 302° |
| 2026-04-26 14:00 | 55.44619 | 12.47040 | 1983 ft | 203 kts | 302° |
| 2026-04-26 14:01 | 55.45679 | 12.44466 | 1992 ft | 190 kts | 317° |
| 2026-04-26 14:01 | 55.46834 | 12.43405 | 1982 ft | 192 kts | 351° |
| 2026-04-26 14:01 | 55.48128 | 12.43820 | 1996 ft | 195 kts | 17° |
| 2026-04-26 14:01 | 55.49336 | 12.44983 | 1993 ft | 202 kts | 36° |
| 2026-04-26 14:02 | 55.50345 | 12.46718 | 1988 ft | 203 kts | 41° |
| 2026-04-26 14:02 | 55.51395 | 12.48367 | 1990 ft | 202 kts | 34° |
| 2026-04-26 14:02 | 55.52481 | 12.49944 | 1885 ft | 200 kts | 37° |
| 2026-04-26 14:02 | 55.53498 | 12.51543 | 1604 ft | 191 kts | 38° |
| 2026-04-26 14:03 | 55.54466 | 12.53039 | 1375 ft | 178 kts | 36° |
| 2026-04-26 14:03 | 55.55370 | 12.54422 | 1117 ft | 166 kts | 37° |
| 2026-04-26 14:03 | 55.56218 | 12.55728 | 864 ft | 157 kts | 37° |
| 2026-04-26 14:03 | 55.57017 | 12.56965 | 667 ft | 147 kts | 35° |
| 2026-04-26 14:04 | 55.57770 | 12.58124 | 435 ft | 140 kts | 35° |
| 2026-04-26 14:04 | 55.58488 | 12.59216 | 270 ft | 137 kts | 32° |
| 2026-04-26 14:04 | 55.59228 | 12.60366 | 96 ft | 141 kts | 33° |
| 2026-04-26 14:04 | 55.59942 | 12.61455 | 30 ft | 127 kts | 43° |
| 2026-04-26 14:05 | 55.60526 | 12.62366 | 31 ft | 97 kts | 41° |
| 2026-04-26 14:05 | 55.60965 | 12.63051 | 31 ft | 72 kts | 41° |
| 2026-04-26 14:05 | 55.61288 | 12.63547 | 32 ft | 53 kts | 41° |
| 2026-04-26 14:05 | 55.61553 | 12.63958 | 32 ft | 44 kts | 41° |
| 2026-04-26 14:06 | 55.61650 | 12.64081 | 33 ft | 10 kts | 18° |
| 2026-04-26 14:06 | 55.61737 | 12.64084 | 31 ft | 15 kts | 356° |
| 2026-04-26 14:06 | 55.61780 | 12.64079 | 30 ft | 0 kts | 356° |
| 2026-04-26 14:07 | 55.61809 | 12.64075 | 30 ft | 7 kts | 356° |
| 2026-04-26 14:08 | 55.61872 | 12.64074 | 30 ft | 11 kts | 8° |
| 2026-04-26 14:08 | 55.61949 | 12.64133 | 30 ft | 14 kts | 25° |
| 2026-04-26 14:08 | 55.62047 | 12.64216 | 30 ft | 17 kts | 25° |
| 2026-04-26 14:08 | 55.62167 | 12.64316 | 29 ft | 21 kts | 25° |
| 2026-04-26 14:09 | 55.62270 | 12.64480 | 29 ft | 20 kts | 68° |
| 2026-04-26 14:09 | 55.62315 | 12.64666 | 30 ft | 17 kts | 66° |
| 2026-04-26 14:09 | 55.62351 | 12.64848 | 30 ft | 15 kts | 92° |
| 2026-04-26 14:09 | 55.62297 | 12.65021 | 30 ft | 17 kts | 123° |
| 2026-04-26 14:10 | 55.62302 | 12.65192 | 30 ft | 13 kts | 33° |
| 2026-04-26 14:10 | 55.62378 | 12.65204 | 30 ft | 12 kts | 358° |
| 2026-04-26 14:10 | 55.62455 | 12.65195 | 30 ft | 10 kts | 354° |
| 2026-04-26 14:10 | 55.62509 | 12.65155 | 30 ft | 6 kts | 299° |
| 2026-04-26 14:11 | 55.62508 | 12.65056 | 30 ft | 0 kts | 268° |